createdAt,value
2023-03-29T00:02:32.333Z,100.00
2023-03-29T00:05:36.091Z,100.00
2023-03-29T00:08:40.603Z,100.00
2023-03-29T00:11:43.753Z,100.00
2023-03-29T00:14:47.249Z,100.00
2023-03-29T00:17:50.823Z,100.00
2023-03-29T00:20:57.381Z,100.00
2023-03-29T00:24:01.882Z,100.00
2023-03-29T00:27:05.340Z,100.00
2023-03-29T00:30:10.421Z,100.00
2023-03-29T00:33:13.578Z,100.00
2023-03-29T00:36:19.119Z,100.00
2023-03-29T00:39:23.602Z,100.00
2023-03-29T00:42:27.051Z,100.00
2023-03-29T00:45:31.190Z,100.00
2023-03-29T00:48:34.615Z,100.00
2023-03-29T00:51:41.770Z,100.00
2023-03-29T00:54:47.560Z,100.00
2023-03-29T00:57:55.695Z,100.00
2023-03-29T01:01:02.720Z,100.00
2023-03-29T01:04:18.517Z,100.00
2023-03-29T01:07:28.342Z,100.00
2023-03-29T01:10:41.055Z,100.00
2023-03-29T01:13:51.559Z,100.00
2023-03-29T01:16:54.959Z,100.00
2023-03-29T01:20:07.811Z,100.00
2023-03-29T01:23:28.343Z,100.00
2023-03-29T01:26:40.574Z,100.00
2023-03-29T01:29:48.894Z,100.00
2023-03-29T01:32:56.906Z,100.00
2023-03-29T01:36:08.096Z,100.00
2023-03-29T01:39:11.694Z,100.00
2023-03-29T01:42:30.934Z,100.00
2023-03-29T01:45:42.494Z,100.00
2023-03-29T01:48:49.922Z,100.00
2023-03-29T01:51:58.222Z,100.00
2023-03-29T01:55:06.703Z,100.00
2023-03-29T01:58:13.235Z,100.00
2023-03-29T02:01:21.499Z,100.00
2023-03-29T02:04:29.016Z,100.00
2023-03-29T02:07:37.181Z,100.00
2023-03-29T02:10:41.074Z,100.00
2023-03-29T02:13:46.092Z,100.00
2023-03-29T02:16:51.598Z,100.00
2023-03-29T02:20:00.767Z,100.00
2023-03-29T02:23:12.288Z,100.00
2023-03-29T02:26:16.563Z,100.00
2023-03-29T02:29:19.968Z,100.00
2023-03-29T02:32:31.300Z,100.00
2023-03-29T02:35:36.764Z,100.00
2023-03-29T02:38:40.504Z,100.00
2023-03-29T02:41:47.053Z,100.00
2023-03-29T02:44:53.600Z,100.00
2023-03-29T02:48:02.812Z,100.00
2023-03-29T02:51:12.046Z,100.00
2023-03-29T02:54:19.712Z,100.00
2023-03-29T02:57:26.466Z,100.00
2023-03-29T03:00:30.261Z,100.00
2023-03-29T03:03:35.838Z,100.00
2023-03-29T03:06:40.219Z,100.00
2023-03-29T03:09:46.388Z,100.00
2023-03-29T03:12:49.565Z,100.00
2023-03-29T03:15:54.083Z,100.00
2023-03-29T03:18:59.093Z,100.00
2023-03-29T03:22:05.845Z,100.00
2023-03-29T03:25:11.408Z,100.00
2023-03-29T03:28:14.843Z,100.00
2023-03-29T03:35:11.604Z,100.00
2023-03-29T03:38:16.729Z,100.00
2023-03-29T03:41:21.525Z,100.00
2023-03-29T03:44:24.781Z,100.00
2023-03-29T03:47:44.834Z,100.00
2023-03-29T03:51:03.462Z,100.00
2023-03-29T03:54:09.768Z,100.00
2023-03-29T03:57:33.406Z,100.00
2023-03-29T04:00:36.957Z,100.00
2023-03-29T04:04:00.925Z,100.00
2023-03-29T04:07:06.103Z,100.00
2023-03-29T04:10:28.190Z,100.00
2023-03-29T04:13:44.173Z,100.00
2023-03-29T04:17:13.093Z,100.00
2023-03-29T04:20:24.263Z,100.00
2023-03-29T04:23:28.799Z,100.00
2023-03-29T04:26:31.984Z,100.00
2023-03-29T04:29:46.326Z,100.00
2023-03-29T04:33:03.836Z,100.00
2023-03-29T04:36:09.199Z,100.00
2023-03-29T04:39:14.461Z,100.00
2023-03-29T04:42:19.121Z,100.00
2023-03-29T04:45:23.509Z,100.00
2023-03-29T04:48:40.550Z,100.00
2023-03-29T04:51:44.521Z,100.00
2023-03-29T04:54:49.400Z,100.00
2023-03-29T04:57:58.145Z,100.00
2023-03-29T05:01:09.804Z,100.00
2023-03-29T05:04:18.871Z,100.00
2023-03-29T05:07:37.064Z,100.00
2023-03-29T05:10:45.029Z,100.00
2023-03-29T05:13:49.423Z,100.00
2023-03-29T05:16:52.954Z,100.00
2023-03-29T05:19:56.302Z,100.00
2023-03-29T05:23:01.626Z,100.00
2023-03-29T05:26:34.742Z,100.00
2023-03-29T05:29:38.060Z,100.00
2023-03-29T05:32:59.209Z,100.00
2023-03-29T05:36:03.789Z,100.00
2023-03-29T05:39:07.450Z,100.00
2023-03-29T05:42:15.520Z,100.00
2023-03-29T05:45:29.771Z,100.00
2023-03-29T05:48:33.758Z,100.00
2023-03-29T05:51:36.995Z,100.00
2023-03-29T05:54:41.534Z,100.00
2023-03-29T05:57:47.604Z,100.00
2023-03-29T06:00:51.259Z,100.00
2023-03-29T06:04:15.164Z,100.00
2023-03-29T06:07:26.828Z,100.00
2023-03-29T06:11:05.118Z,100.00
2023-03-29T06:14:39.034Z,100.00
2023-03-29T06:17:57.192Z,100.00
2023-03-29T06:21:02.002Z,100.00
2023-03-29T06:24:06.729Z,100.00
2023-03-29T06:27:15.518Z,100.00
2023-03-29T06:30:21.445Z,100.00
2023-03-29T06:33:32.474Z,100.00
2023-03-29T06:36:45.575Z,100.00
2023-03-29T06:39:53.392Z,100.00
2023-03-29T06:43:01.953Z,100.00
2023-03-29T06:46:42.398Z,100.00
2023-03-29T06:49:45.739Z,100.00
2023-03-29T06:53:04.783Z,100.00
2023-03-29T06:56:09.887Z,100.00
2023-03-29T06:59:20.590Z,100.00
2023-03-29T07:02:47.646Z,100.00
2023-03-29T07:06:01.098Z,100.00
2023-03-29T07:09:06.808Z,100.00
2023-03-29T07:12:24.470Z,100.00
2023-03-29T07:15:30.405Z,100.00
2023-03-29T07:18:52.607Z,100.00
2023-03-29T07:22:09.962Z,100.00
2023-03-29T07:25:31.125Z,100.00
2023-03-29T07:28:37.321Z,100.00
2023-03-29T07:31:41.525Z,100.00
2023-03-29T07:35:07.446Z,100.00
2023-03-29T07:38:12.427Z,100.00
2023-03-29T07:41:21.115Z,100.00
2023-03-29T07:44:27.036Z,100.00
2023-03-29T07:47:30.936Z,100.00
2023-03-29T07:50:35.777Z,100.00
2023-03-29T07:53:40.948Z,100.00
2023-03-29T07:56:57.944Z,100.00
2023-03-29T08:00:16.354Z,100.00
2023-03-29T08:03:31.667Z,100.00
2023-03-29T08:06:36.610Z,100.00
2023-03-29T08:09:39.860Z,100.00
2023-03-29T08:12:47.741Z,100.00
2023-03-29T08:15:52.651Z,100.00
2023-03-29T08:19:04.954Z,100.00
2023-03-29T08:22:26.454Z,100.00
2023-03-29T08:25:48.004Z,100.00
2023-03-29T08:28:52.453Z,100.00
2023-03-29T08:31:58.421Z,100.00
2023-03-29T08:35:03.844Z,100.00
2023-03-29T08:38:15.093Z,100.00
2023-03-29T08:41:35.250Z,100.00
2023-03-29T08:44:56.000Z,100.00
2023-03-29T08:48:09.549Z,100.00
2023-03-29T08:51:21.916Z,100.00
2023-03-29T08:54:29.089Z,100.00
2023-03-29T08:57:59.946Z,100.00
2023-03-29T09:01:13.289Z,100.00
2023-03-29T09:04:30.421Z,100.00
2023-03-29T09:07:52.537Z,100.00
2023-03-29T09:11:12.481Z,100.00
2023-03-29T09:14:31.533Z,100.00
2023-03-29T09:17:44.529Z,100.00
2023-03-29T09:20:57.017Z,100.00
2023-03-29T09:24:19.967Z,100.00
2023-03-29T09:27:50.971Z,100.00
2023-03-29T09:35:18.213Z,100.00
2023-03-29T09:38:23.521Z,100.00
2023-03-29T09:41:33.711Z,100.00
2023-03-29T09:44:43.686Z,100.00
2023-03-29T09:47:56.264Z,100.00
2023-03-29T09:51:04.314Z,100.00
2023-03-29T09:54:12.029Z,100.00
2023-03-29T09:57:51.008Z,100.00
2023-03-29T10:00:59.560Z,100.00
2023-03-29T10:04:02.857Z,100.00
2023-03-29T10:07:08.763Z,100.00
2023-03-29T10:10:22.792Z,100.00
2023-03-29T10:13:30.600Z,100.00
2023-03-29T10:16:37.517Z,100.00
2023-03-29T10:19:49.990Z,100.00
2023-03-29T10:22:58.810Z,100.00
2023-03-29T10:26:04.544Z,100.00
2023-03-29T10:29:08.695Z,100.00
2023-03-29T10:32:17.518Z,100.00
2023-03-29T10:35:22.661Z,100.00
2023-03-29T10:38:29.510Z,100.00
2023-03-29T10:41:36.025Z,100.00
2023-03-29T10:44:39.376Z,100.00
2023-03-29T10:47:46.560Z,100.00
2023-03-29T10:50:52.910Z,100.00
2023-03-29T10:53:58.177Z,98.56
2023-03-29T10:57:06.953Z,100.00
2023-03-29T11:00:19.584Z,99.77
2023-03-29T11:03:58.811Z,99.20
2023-03-29T11:07:17.330Z,100.00
2023-03-29T11:10:36.208Z,94.91
2023-03-29T11:13:49.826Z,94.86
2023-03-29T11:17:06.072Z,96.11
2023-03-29T11:20:23.321Z,95.83
2023-03-29T11:23:41.456Z,98.14
2023-03-29T11:26:58.257Z,97.93
2023-03-29T11:30:08.149Z,98.56
2023-03-29T11:33:21.480Z,99.54
2023-03-29T11:36:32.955Z,96.08
2023-03-29T11:39:46.880Z,99.24
2023-03-29T11:42:56.970Z,100.00
2023-03-29T11:46:05.720Z,100.00
2023-03-29T11:49:15.508Z,100.00
2023-03-29T11:52:22.360Z,99.80
2023-03-29T11:55:28.362Z,100.00
2023-03-29T11:58:39.116Z,100.00
2023-03-29T12:01:47.065Z,100.00
2023-03-29T12:04:55.807Z,100.00
2023-03-29T12:08:05.175Z,100.00
2023-03-29T12:11:15.172Z,100.00
2023-03-29T12:14:27.930Z,100.00
2023-03-29T12:17:35.230Z,100.00
2023-03-29T12:20:40.957Z,100.00
2023-03-29T12:23:47.741Z,100.00
2023-03-29T12:27:04.696Z,100.00
2023-03-29T12:30:39.693Z,100.00
2023-03-29T12:34:09.155Z,100.00
2023-03-29T12:37:40.119Z,100.00
2023-03-29T12:41:11.142Z,100.00
2023-03-29T12:44:34.077Z,100.00
2023-03-29T12:47:53.058Z,100.00
2023-03-29T12:51:01.724Z,100.00
2023-03-29T12:54:09.272Z,100.00
2023-03-29T12:57:27.419Z,100.00
2023-03-29T13:00:35.346Z,100.00
2023-03-29T13:03:49.466Z,100.00
2023-03-29T13:07:08.023Z,100.00
2023-03-29T13:10:29.566Z,100.00
2023-03-29T13:13:36.208Z,100.00
2023-03-29T13:16:42.084Z,100.00
2023-03-29T13:19:51.972Z,100.00
2023-03-29T13:23:08.929Z,100.00
2023-03-29T13:26:34.782Z,100.00
2023-03-29T13:29:53.054Z,100.00
2023-03-29T13:33:06.459Z,100.00
2023-03-29T13:36:22.477Z,100.00
2023-03-29T13:39:30.398Z,100.00
2023-03-29T13:42:40.813Z,100.00
2023-03-29T13:45:43.793Z,100.00
2023-03-29T13:49:05.374Z,100.00
2023-03-29T13:52:17.096Z,100.00
2023-03-29T13:55:25.660Z,100.00
2023-03-29T13:58:37.458Z,100.00
2023-03-29T14:01:45.964Z,100.00
2023-03-29T14:04:52.249Z,100.00
2023-03-29T14:07:57.953Z,100.00
2023-03-29T14:11:03.002Z,100.00
2023-03-29T14:14:08.393Z,100.00
2023-03-29T14:17:18.853Z,100.00
2023-03-29T14:20:22.083Z,100.00
2023-03-29T14:23:30.197Z,100.00
2023-03-29T14:26:34.424Z,100.00
2023-03-29T14:29:37.738Z,100.00
2023-03-29T14:32:40.860Z,100.00
2023-03-29T14:35:44.241Z,100.00
2023-03-29T14:38:53.567Z,100.00
2023-03-29T14:41:58.093Z,100.00
2023-03-29T14:45:04.950Z,100.00
2023-03-29T14:48:13.339Z,100.00
2023-03-29T14:51:17.079Z,100.00
2023-03-29T14:54:26.320Z,100.00
2023-03-29T14:57:35.322Z,100.00
2023-03-29T15:00:42.234Z,100.00
2023-03-29T15:03:50.831Z,100.00
2023-03-29T15:06:55.062Z,100.00
2023-03-29T15:10:01.067Z,100.00
2023-03-29T15:13:06.687Z,100.00
2023-03-29T15:16:14.842Z,100.00
2023-03-29T15:19:20.761Z,100.00
2023-03-29T15:22:23.884Z,100.00
2023-03-29T15:25:33.963Z,100.00
2023-03-29T15:28:47.515Z,100.00
2023-03-29T15:35:22.119Z,100.00
2023-03-29T15:38:36.552Z,100.00
2023-03-29T15:41:49.285Z,100.00
2023-03-29T15:44:56.092Z,100.00
2023-03-29T15:48:01.806Z,100.00
2023-03-29T15:51:07.493Z,100.00
2023-03-29T15:54:11.537Z,100.00
2023-03-29T15:57:16.917Z,100.00
2023-03-29T16:00:22.331Z,100.00
2023-03-29T16:03:28.046Z,100.00
2023-03-29T16:06:33.618Z,100.00
2023-03-29T16:09:36.964Z,100.00
2023-03-29T16:12:40.599Z,100.00
2023-03-29T16:15:44.227Z,100.00
2023-03-29T16:18:47.609Z,100.00
2023-03-29T16:21:53.636Z,100.00
2023-03-29T16:24:57.035Z,100.00
2023-03-29T16:28:01.549Z,100.00
2023-03-29T16:31:05.418Z,100.00
2023-03-29T16:34:09.199Z,100.00
2023-03-29T16:37:14.008Z,100.00
2023-03-29T16:40:17.877Z,100.00
2023-03-29T16:43:21.041Z,100.00
2023-03-29T16:46:24.411Z,100.00
2023-03-29T16:49:27.722Z,100.00
2023-03-29T16:52:32.347Z,100.00
2023-03-29T16:55:35.840Z,100.00
2023-03-29T16:58:40.073Z,100.00
2023-03-29T17:01:44.064Z,100.00
2023-03-29T17:04:47.738Z,100.00
2023-03-29T17:07:52.290Z,100.00
2023-03-29T17:10:56.339Z,100.00
2023-03-29T17:14:00.114Z,100.00
2023-03-29T17:17:03.348Z,100.00
2023-03-29T17:20:11.778Z,100.00
2023-03-29T17:23:16.296Z,100.00
2023-03-29T17:26:19.686Z,100.00
2023-03-29T17:29:23.201Z,100.00
2023-03-29T17:32:26.403Z,100.00
2023-03-29T17:35:29.858Z,100.00
2023-03-29T17:38:34.786Z,100.00
2023-03-29T17:41:37.927Z,100.00
2023-03-29T17:44:41.083Z,100.00
2023-03-29T17:47:44.581Z,100.00
2023-03-29T17:50:48.263Z,100.00
2023-03-29T17:53:52.920Z,100.00
2023-03-29T17:56:56.192Z,100.00
2023-03-29T17:59:59.419Z,100.00
2023-03-29T18:03:02.784Z,100.00
2023-03-29T18:06:07.015Z,100.00
2023-03-29T18:09:11.630Z,100.00
2023-03-29T18:12:14.953Z,100.00
2023-03-29T18:15:18.493Z,100.00
2023-03-29T18:18:21.706Z,100.00
2023-03-29T18:21:25.999Z,100.00
2023-03-29T18:24:31.349Z,100.00
2023-03-29T18:27:34.446Z,100.00
2023-03-29T18:30:37.646Z,100.00
2023-03-29T18:33:40.881Z,100.00
2023-03-29T18:36:44.217Z,100.00
2023-03-29T18:39:49.008Z,100.00
2023-03-29T18:42:52.706Z,100.00
2023-03-29T18:45:56.020Z,100.00
2023-03-29T18:49:01.393Z,100.00
2023-03-29T18:52:05.828Z,100.00
2023-03-29T18:55:10.853Z,100.00
2023-03-29T18:58:15.868Z,100.00
2023-03-29T19:01:19.157Z,100.00
2023-03-29T19:04:23.507Z,100.00
2023-03-29T19:07:28.254Z,100.00
2023-03-29T19:10:32.785Z,100.00
2023-03-29T19:13:36.402Z,100.00
2023-03-29T19:16:40.905Z,100.00
2023-03-29T19:19:46.170Z,100.00
2023-03-29T19:22:49.288Z,100.00
2023-03-29T19:25:54.961Z,100.00
2023-03-29T19:28:58.458Z,100.00
2023-03-29T19:32:01.732Z,100.00
2023-03-29T19:35:05.390Z,100.00
2023-03-29T19:38:08.851Z,100.00
2023-03-29T19:41:13.338Z,100.00
2023-03-29T19:44:16.603Z,100.00
2023-03-29T19:47:19.735Z,100.00
2023-03-29T19:50:22.875Z,100.00
2023-03-29T19:53:27.009Z,100.00
2023-03-29T19:56:33.068Z,100.00
2023-03-29T19:59:37.812Z,100.00
2023-03-29T20:02:41.727Z,100.00
2023-03-29T20:05:44.928Z,100.00
2023-03-29T20:08:48.769Z,100.00
2023-03-29T20:11:53.253Z,100.00
2023-03-29T20:14:56.427Z,100.00
2023-03-29T20:18:00.251Z,100.00
2023-03-29T20:21:03.775Z,100.00
2023-03-29T20:24:08.579Z,100.00
2023-03-29T20:27:13.814Z,100.00
2023-03-29T20:30:17.053Z,100.00
2023-03-29T20:33:21.378Z,100.00
2023-03-29T20:36:26.479Z,100.00
2023-03-29T20:39:31.246Z,100.00
2023-03-29T20:42:38.091Z,100.00
2023-03-29T20:45:52.071Z,100.00
2023-03-29T20:48:56.317Z,100.00
2023-03-29T20:51:59.755Z,100.00
2023-03-29T20:55:03.407Z,100.00
2023-03-29T20:58:08.153Z,100.00
2023-03-29T21:01:14.147Z,100.00
2023-03-29T21:04:17.547Z,100.00
2023-03-29T21:07:22.344Z,100.00
2023-03-29T21:10:26.699Z,100.00
2023-03-29T21:13:35.767Z,100.00
2023-03-29T21:16:41.610Z,100.00
2023-03-29T21:19:44.870Z,100.00
2023-03-29T21:22:48.020Z,100.00
2023-03-29T21:25:51.426Z,100.00
2023-03-29T21:28:56.246Z,100.00
2023-03-29T21:35:10.869Z,100.00
2023-03-29T21:38:14.029Z,100.00
2023-03-29T21:41:18.254Z,100.00
2023-03-29T21:44:21.475Z,100.00
2023-03-29T21:47:24.625Z,100.00
2023-03-29T21:50:31.975Z,100.00
2023-03-29T21:53:37.126Z,100.00
2023-03-29T21:56:40.397Z,100.00
2023-03-29T21:59:44.004Z,100.00
2023-03-29T22:02:47.221Z,100.00
2023-03-29T22:05:59.748Z,100.00
2023-03-29T22:09:03.086Z,100.00
2023-03-29T22:12:06.672Z,100.00
2023-03-29T22:15:12.339Z,100.00
2023-03-29T22:18:15.428Z,100.00
2023-03-29T22:21:22.542Z,100.00
2023-03-29T22:24:25.839Z,100.00
2023-03-29T22:27:28.986Z,100.00
2023-03-29T22:30:32.157Z,100.00
2023-03-29T22:33:37.318Z,100.00
2023-03-29T22:36:41.825Z,100.00
2023-03-29T22:39:47.201Z,100.00
2023-03-29T22:42:50.470Z,100.00
2023-03-29T22:45:53.663Z,100.00
2023-03-29T22:48:57.223Z,100.00
2023-03-29T22:52:02.362Z,100.00
2023-03-29T22:55:06.399Z,100.00
2023-03-29T22:58:09.717Z,100.00
2023-03-29T23:01:13.229Z,100.00
2023-03-29T23:04:16.917Z,100.00
2023-03-29T23:07:21.481Z,100.00
2023-03-29T23:10:28.724Z,100.00
2023-03-29T23:13:33.463Z,100.00
2023-03-29T23:16:36.924Z,100.00
2023-03-29T23:19:40.108Z,100.00
2023-03-29T23:22:45.470Z,100.00
2023-03-29T23:25:50.197Z,100.00
2023-03-29T23:28:54.321Z,100.00
2023-03-29T23:31:59.465Z,100.00
2023-03-29T23:35:04.408Z,100.00
2023-03-29T23:38:08.888Z,100.00
2023-03-29T23:41:12.994Z,100.00
2023-03-29T23:44:16.413Z,100.00
2023-03-29T23:47:19.554Z,100.00
2023-03-29T23:50:23.906Z,100.00
2023-03-29T23:53:29.725Z,100.00
2023-03-29T23:56:33.333Z,100.00
2023-03-29T23:59:37.882Z,100.00
